Time;durP1;ratioP1;P1;durP2;ratioP2;P2;SDS_P1;SDS_P2;PMS_P1;PMS_P2;Temp;Humidity;BMP_temperature;BMP_pressure;BME280_temperature;BME280_humidity;BME280_pressure;Samples;Min_cycle;Max_cycle;Signal;HPM_P1;HPM_P2
2023/05/26 00:00:37;;;;;;;19.40;9.10;;;;;;;-128.00;-1.00;-1.00;18901;293;7505699;-35
2023/05/26 00:03:04;;;;;;;8.10;7.30;;;;;;;-128.00;-1.00;-1.00;18888;293;7504765;-32
2023/05/26 00:05:30;;;;;;;12.40;8.40;;;;;;;-128.00;-1.00;-1.00;18915;293;7505861;-34
2023/05/26 00:07:56;;;;;;;12.90;8.70;;;;;;;-128.00;-1.00;-1.00;18894;293;7504517;-34
2023/05/26 00:10:24;;;;;;;9.50;8.00;;;;;;;-128.00;-1.00;-1.00;18928;344;7504696;-31
2023/05/26 00:12:49;;;;;;;11.20;8.50;;;;;;;-128.00;-1.00;-1.00;18516;293;7504815;-32
2023/05/26 00:15:15;;;;;;;16.00;9.20;;;;;;;-128.00;-1.00;-1.00;18860;294;7505341;-31
2023/05/26 00:17:41;;;;;;;13.60;9.10;;;;;;;-128.00;-1.00;-1.00;18916;293;7504727;-31
2023/05/26 00:20:10;;;;;;;9.50;8.40;;;;;;;-128.00;-1.00;-1.00;18920;293;7504693;-34
2023/05/26 00:22:36;;;;;;;10.30;7.60;;;;;;;-128.00;-1.00;-1.00;18497;293;7506070;-33
2023/05/26 00:25:03;;;;;;;19.60;8.00;;;;;;;-128.00;-1.00;-1.00;18493;294;7504295;-35
2023/05/26 00:27:29;;;;;;;7.60;6.90;;;;;;;-128.00;-1.00;-1.00;18471;294;7506882;-36
2023/05/26 00:29:57;;;;;;;7.20;6.50;;;;;;;-128.00;-1.00;-1.00;18531;293;7504803;-30
2023/05/26 00:32:24;;;;;;;16.70;8.50;;;;;;;-128.00;-1.00;-1.00;18525;293;7504368;-31
2023/05/26 00:34:49;;;;;;;13.40;7.80;;;;;;;-128.00;-1.00;-1.00;18494;293;7504404;-31
2023/05/26 00:37:16;;;;;;;13.20;9.50;;;;;;;-128.00;-1.00;-1.00;18922;293;7504982;-35
2023/05/26 00:39:42;;;;;;;18.20;8.30;;;;;;;-128.00;-1.00;-1.00;18870;294;7504410;-35
2023/05/26 00:42:08;;;;;;;11.90;9.60;;;;;;;-128.00;-1.00;-1.00;18915;293;7505142;-35
2023/05/26 00:44:34;;;;;;;10.90;8.60;;;;;;;-128.00;-1.00;-1.00;18881;346;7505457;-31
2023/05/26 00:47:01;;;;;;;10.90;7.60;;;;;;;-128.00;-1.00;-1.00;18509;293;7504920;-35
2023/05/26 00:49:26;;;;;;;8.70;6.00;;;;;;;-128.00;-1.00;-1.00;18504;294;7505206;-35
2023/05/26 00:51:52;;;;;;;19.10;9.00;;;;;;;-128.00;-1.00;-1.00;18499;293;7506368;-35
2023/05/26 00:54:19;;;;;;;9.20;7.50;;;;;;;-128.00;-1.00;-1.00;18496;293;7505824;-31
2023/05/26 00:56:45;;;;;;;16.50;8.10;;;;;;;-128.00;-1.00;-1.00;18494;294;7504998;-31
2023/05/26 00:59:11;;;;;;;13.30;10.30;;;;;;;-128.00;-1.00;-1.00;18510;293;7505604;-32
2023/05/26 01:01:37;;;;;;;12.30;9.20;;;;;;;-128.00;-1.00;-1.00;18534;293;7503863;-32
2023/05/26 01:04:03;;;;;;;22.80;11.40;;;;;;;-128.00;-1.00;-1.00;18479;294;7505937;-31
2023/05/26 01:06:29;;;;;;;14.90;9.80;;;;;;;-128.00;-1.00;-1.00;18530;293;7504412;-32
2023/05/26 01:08:55;;;;;;;20.70;10.30;;;;;;;-128.00;-1.00;-1.00;18491;293;7504844;-36
2023/05/26 01:11:30;;;;;;;14.00;9.80;;;;;;;-128.00;-1.00;-1.00;18521;293;7505971;-36
2023/05/26 01:14:15;;;;;;;15.10;9.40;;;;;;;-128.00;-1.00;-1.00;18523;285;7505215;-37
2023/05/26 01:16:57;;;;;;;10.30;8.90;;;;;;;-128.00;-1.00;-1.00;18468;294;7504282;-35
2023/05/26 01:19:42;;;;;;;20.20;8.60;;;;;;;-128.00;-1.00;-1.00;18523;293;7504290;-36
2023/05/26 01:22:37;;;;;;;10.80;8.90;;;;;;;-128.00;-1.00;-1.00;18481;339;7505334;-31
2023/05/26 01:25:20;;;;;;;16.80;8.30;;;;;;;-128.00;-1.00;-1.00;18501;294;7506010;-35
2023/05/26 01:28:06;;;;;;;9.20;7.70;;;;;;;-128.00;-1.00;-1.00;18520;293;7505888;-30
2023/05/26 01:30:33;;;;;;;16.20;9.80;;;;;;;-128.00;-1.00;-1.00;18515;293;7506594;-37
2023/05/26 01:32:59;;;;;;;11.10;9.60;;;;;;;-128.00;-1.00;-1.00;18483;294;7504591;-36
2023/05/26 01:35:24;;;;;;;12.20;8.50;;;;;;;-128.00;-1.00;-1.00;18529;345;7506016;-35
2023/05/26 01:37:50;;;;;;;12.60;8.10;;;;;;;-128.00;-1.00;-1.00;18500;286;7504509;-31
2023/05/26 01:40:16;;;;;;;12.00;9.50;;;;;;;-128.00;-1.00;-1.00;18931;293;7504823;-32
2023/05/26 01:42:47;;;;;;;12.20;7.80;;;;;;;-128.00;-1.00;-1.00;18925;293;7505457;-31
2023/05/26 01:45:15;;;;;;;8.30;7.20;;;;;;;-128.00;-1.00;-1.00;18495;294;7504951;-32
2023/05/26 01:47:41;;;;;;;17.60;8.60;;;;;;;-128.00;-1.00;-1.00;18482;295;7504451;-31
2023/05/26 01:50:07;;;;;;;10.90;8.20;;;;;;;-128.00;-1.00;-1.00;18508;293;7504708;-35
2023/05/26 01:52:33;;;;;;;9.30;8.10;;;;;;;-128.00;-1.00;-1.00;18520;293;7504789;-32
2023/05/26 01:55:02;;;;;;;17.30;9.20;;;;;;;-128.00;-1.00;-1.00;18502;298;7504690;-31
2023/05/26 01:57:27;;;;;;;14.80;9.60;;;;;;;-128.00;-1.00;-1.00;18514;294;7504962;-33
2023/05/26 01:59:53;;;;;;;19.90;10.60;;;;;;;-128.00;-1.00;-1.00;18893;296;7505428;-32
2023/05/26 02:02:19;;;;;;;19.90;10.40;;;;;;;-128.00;-1.00;-1.00;18874;294;7504952;-36
2023/05/26 02:04:46;;;;;;;15.20;10.80;;;;;;;-128.00;-1.00;-1.00;18865;310;7504408;-32
2023/05/26 02:07:12;;;;;;;19.60;11.20;;;;;;;-128.00;-1.00;-1.00;18900;294;7505364;-36
2023/05/26 02:09:38;;;;;;;14.30;8.80;;;;;;;-128.00;-1.00;-1.00;18894;293;7505273;-32
2023/05/26 02:12:06;;;;;;;24.90;10.80;;;;;;;-128.00;-1.00;-1.00;18899;293;7504470;-36
2023/05/26 02:14:32;;;;;;;15.40;8.50;;;;;;;-128.00;-1.00;-1.00;18486;294;7506556;-36
2023/05/26 02:16:58;;;;;;;15.60;10.30;;;;;;;-128.00;-1.00;-1.00;18506;293;7506248;-33
2023/05/26 02:19:25;;;;;;;10.80;8.50;;;;;;;-128.00;-1.00;-1.00;18511;293;7504583;-37
2023/05/26 02:21:50;;;;;;;10.90;8.90;;;;;;;-128.00;-1.00;-1.00;18499;282;7504188;-36
2023/05/26 02:24:16;;;;;;;9.60;8.20;;;;;;;-128.00;-1.00;-1.00;18509;294;7504620;-31
2023/05/26 02:26:42;;;;;;;22.80;9.40;;;;;;;-128.00;-1.00;-1.00;18494;293;7504359;-31
2023/05/26 02:29:07;;;;;;;8.60;7.50;;;;;;;-128.00;-1.00;-1.00;18504;294;7504460;-35
2023/05/26 02:31:34;;;;;;;17.60;8.50;;;;;;;-128.00;-1.00;-1.00;18904;290;7504974;-35
2023/05/26 02:34:01;;;;;;;10.20;7.50;;;;;;;-128.00;-1.00;-1.00;18502;347;7504898;-32
2023/05/26 02:36:27;;;;;;;8.50;6.70;;;;;;;-128.00;-1.00;-1.00;18499;293;7504789;-32
2023/05/26 02:38:52;;;;;;;11.50;7.80;;;;;;;-128.00;-1.00;-1.00;18488;293;7504669;-31
2023/05/26 02:41:18;;;;;;;15.80;7.90;;;;;;;-128.00;-1.00;-1.00;18872;294;7505433;-35
2023/05/26 02:43:44;;;;;;;17.20;9.70;;;;;;;-128.00;-1.00;-1.00;18902;293;7504335;-32
2023/05/26 02:46:11;;;;;;;12.80;8.60;;;;;;;-128.00;-1.00;-1.00;18887;293;7505997;-32
2023/05/26 02:48:37;;;;;;;21.40;10.10;;;;;;;-128.00;-1.00;-1.00;18495;294;7504508;-35
2023/05/26 02:51:03;;;;;;;19.10;8.70;;;;;;;-128.00;-1.00;-1.00;18486;293;7504825;-31
2023/05/26 02:53:28;;;;;;;16.20;6.60;;;;;;;-128.00;-1.00;-1.00;18485;294;7506912;-35
2023/05/26 02:55:54;;;;;;;11.00;6.30;;;;;;;-128.00;-1.00;-1.00;18522;293;7505848;-35
2023/05/26 02:58:20;;;;;;;10.80;6.50;;;;;;;-128.00;-1.00;-1.00;18503;293;7504671;-31
2023/05/26 03:00:46;;;;;;;15.10;8.20;;;;;;;-128.00;-1.00;-1.00;18900;293;7504196;-34
2023/05/26 03:03:13;;;;;;;10.20;6.70;;;;;;;-128.00;-1.00;-1.00;18891;293;7504428;-30
2023/05/26 03:05:39;;;;;;;7.30;5.90;;;;;;;-128.00;-1.00;-1.00;18513;293;7504472;-35
2023/05/26 03:08:04;;;;;;;12.10;6.20;;;;;;;-128.00;-1.00;-1.00;18531;293;7504829;-32
2023/05/26 03:10:32;;;;;;;12.50;6.40;;;;;;;-128.00;-1.00;-1.00;18503;294;7506151;-36
2023/05/26 03:12:58;;;;;;;8.40;6.30;;;;;;;-128.00;-1.00;-1.00;18456;294;7504332;-36
2023/05/26 03:15:26;;;;;;;18.90;8.10;;;;;;;-128.00;-1.00;-1.00;18904;345;7504579;-31
2023/05/26 03:17:51;;;;;;;9.80;6.30;;;;;;;-128.00;-1.00;-1.00;18503;293;7505113;-31
2023/05/26 03:20:17;;;;;;;15.20;7.60;;;;;;;-128.00;-1.00;-1.00;18469;293;7504776;-31
2023/05/26 03:22:43;;;;;;;7.30;5.70;;;;;;;-128.00;-1.00;-1.00;18491;293;7504422;-35
2023/05/26 03:25:09;;;;;;;10.60;6.50;;;;;;;-128.00;-1.00;-1.00;18893;294;7505402;-31
2023/05/26 03:27:37;;;;;;;8.30;5.20;;;;;;;-128.00;-1.00;-1.00;18873;339;7504703;-31
2023/05/26 03:30:04;;;;;;;8.40;5.90;;;;;;;-128.00;-1.00;-1.00;18505;293;7504631;-35
2023/05/26 03:32:29;;;;;;;13.80;5.90;;;;;;;-128.00;-1.00;-1.00;18512;293;7504653;-35
2023/05/26 03:34:55;;;;;;;18.00;7.20;;;;;;;-128.00;-1.00;-1.00;18506;293;7504506;-31
2023/05/26 03:37:21;;;;;;;10.80;5.80;;;;;;;-128.00;-1.00;-1.00;18508;293;7504516;-32
2023/05/26 03:39:47;;;;;;;13.80;5.60;;;;;;;-128.00;-1.00;-1.00;18924;287;7504809;-36
2023/05/26 03:42:13;;;;;;;14.40;7.30;;;;;;;-128.00;-1.00;-1.00;18889;294;7505876;-35
2023/05/26 03:44:39;;;;;;;8.10;6.80;;;;;;;-128.00;-1.00;-1.00;18870;294;7505479;-34
2023/05/26 03:47:06;;;;;;;7.40;4.60;;;;;;;-128.00;-1.00;-1.00;18892;294;7505306;-31
2023/05/26 03:49:32;;;;;;;5.30;4.80;;;;;;;-128.00;-1.00;-1.00;18516;293;7505963;-35
2023/05/26 03:51:58;;;;;;;5.50;4.20;;;;;;;-128.00;-1.00;-1.00;18898;293;7504469;-35
2023/05/26 03:54:24;;;;;;;9.50;5.60;;;;;;;-128.00;-1.00;-1.00;18907;293;7504568;-35
2023/05/26 03:56:51;;;;;;;8.30;4.30;;;;;;;-128.00;-1.00;-1.00;18917;294;7505700;-35
2023/05/26 03:59:17;;;;;;;7.20;4.10;;;;;;;-128.00;-1.00;-1.00;18897;294;7505906;-36
2023/05/26 04:01:43;;;;;;;8.40;5.40;;;;;;;-128.00;-1.00;-1.00;18865;335;7504556;-36
2023/05/26 04:04:09;;;;;;;12.40;5.90;;;;;;;-128.00;-1.00;-1.00;18900;294;7504582;-32
2023/05/26 04:06:35;;;;;;;9.90;6.00;;;;;;;-128.00;-1.00;-1.00;18903;293;7504280;-30
2023/05/26 04:09:03;;;;;;;6.10;4.60;;;;;;;-128.00;-1.00;-1.00;18886;293;7505071;-32
2023/05/26 04:11:29;;;;;;;8.20;4.00;;;;;;;-128.00;-1.00;-1.00;18485;293;7504692;-36
2023/05/26 04:13:55;;;;;;;13.40;4.50;;;;;;;-128.00;-1.00;-1.00;18493;338;7504888;-35
2023/05/26 04:16:21;;;;;;;5.30;4.50;;;;;;;-128.00;-1.00;-1.00;18917;293;7504963;-32
2023/05/26 04:18:47;;;;;;;11.40;5.60;;;;;;;-128.00;-1.00;-1.00;18915;293;7504941;-35
2023/05/26 04:21:13;;;;;;;10.80;5.10;;;;;;;-128.00;-1.00;-1.00;18909;293;7504384;-35
2023/05/26 04:23:40;;;;;;;7.80;6.00;;;;;;;-128.00;-1.00;-1.00;18878;294;7504534;-35
2023/05/26 04:26:06;;;;;;;9.20;5.00;;;;;;;-128.00;-1.00;-1.00;18908;293;7504413;-36
2023/05/26 04:28:33;;;;;;;16.00;6.50;;;;;;;-128.00;-1.00;-1.00;18910;286;7505345;-32
2023/05/26 04:31:00;;;;;;;7.90;4.70;;;;;;;-128.00;-1.00;-1.00;18500;294;7505620;-31
2023/05/26 04:33:26;;;;;;;5.90;4.20;;;;;;;-128.00;-1.00;-1.00;18493;294;7504324;-34
2023/05/26 04:35:52;;;;;;;8.10;5.00;;;;;;;-128.00;-1.00;-1.00;18482;294;7504568;-34
2023/05/26 04:38:17;;;;;;;6.20;3.20;;;;;;;-128.00;-1.00;-1.00;18480;294;7504742;-37
2023/05/26 04:40:43;;;;;;;6.80;4.70;;;;;;;-128.00;-1.00;-1.00;18501;305;7504780;-35
2023/05/26 04:43:10;;;;;;;8.20;5.40;;;;;;;-128.00;-1.00;-1.00;18518;294;7504669;-31
2023/05/26 04:45:37;;;;;;;7.30;4.30;;;;;;;-128.00;-1.00;-1.00;18538;293;7504796;-35
2023/05/26 04:48:05;;;;;;;6.30;3.60;;;;;;;-128.00;-1.00;-1.00;18464;298;7504556;-34
2023/05/26 04:50:32;;;;;;;8.40;4.20;;;;;;;-128.00;-1.00;-1.00;18511;294;7505837;-31
2023/05/26 04:52:59;;;;;;;8.20;4.10;;;;;;;-128.00;-1.00;-1.00;18510;293;7504326;-36
2023/05/26 04:55:25;;;;;;;11.30;3.70;;;;;;;-128.00;-1.00;-1.00;18519;339;7505955;-35
2023/05/26 04:57:50;;;;;;;5.80;4.10;;;;;;;-128.00;-1.00;-1.00;18501;294;7504995;-32
2023/05/26 05:00:17;;;;;;;7.10;4.90;;;;;;;-128.00;-1.00;-1.00;18500;337;7505787;-36
2023/05/26 05:02:42;;;;;;;6.90;4.30;;;;;;;-128.00;-1.00;-1.00;18488;293;7504869;-32
2023/05/26 05:05:08;;;;;;;6.30;3.60;;;;;;;-128.00;-1.00;-1.00;18502;317;7505975;-32
2023/05/26 05:07:34;;;;;;;7.40;3.40;;;;;;;-128.00;-1.00;-1.00;18518;293;7504663;-32
2023/05/26 05:10:00;;;;;;;6.50;3.90;;;;;;;-128.00;-1.00;-1.00;18501;305;7504540;-36
2023/05/26 05:12:26;;;;;;;7.70;5.10;;;;;;;-128.00;-1.00;-1.00;18905;293;7504892;-36
2023/05/26 05:14:52;;;;;;;6.00;4.50;;;;;;;-128.00;-1.00;-1.00;18902;293;7504123;-36
2023/05/26 05:17:18;;;;;;;11.80;4.90;;;;;;;-128.00;-1.00;-1.00;18909;293;7504473;-37
2023/05/26 05:19:44;;;;;;;6.30;4.40;;;;;;;-128.00;-1.00;-1.00;18893;294;7506503;-32
2023/05/26 05:22:12;;;;;;;8.30;4.40;;;;;;;-128.00;-1.00;-1.00;18910;293;7504874;-35
2023/05/26 05:24:38;;;;;;;7.90;3.20;;;;;;;-128.00;-1.00;-1.00;18511;294;7504330;-32
2023/05/26 05:27:05;;;;;;;7.00;2.80;;;;;;;-128.00;-1.00;-1.00;18480;294;7505530;-35
2023/05/26 05:29:30;;;;;;;3.60;1.70;;;;;;;-128.00;-1.00;-1.00;18509;293;7505341;-31
2023/05/26 05:31:56;;;;;;;2.80;1.90;;;;;;;-128.00;-1.00;-1.00;18521;293;7504287;-34
2023/05/26 05:34:22;;;;;;;6.60;3.00;;;;;;;-128.00;-1.00;-1.00;18921;294;7504352;-32
2023/05/26 05:36:48;;;;;;;4.80;2.70;;;;;;;-128.00;-1.00;-1.00;18902;294;7505284;-32
2023/05/26 05:39:14;;;;;;;8.00;3.00;;;;;;;-128.00;-1.00;-1.00;18922;293;7504407;-36
2023/05/26 05:41:41;;;;;;;11.10;3.10;;;;;;;-128.00;-1.00;-1.00;18942;293;7504641;-32
2023/05/26 05:44:07;;;;;;;9.70;3.80;;;;;;;-128.00;-1.00;-1.00;18907;293;7504573;-36
2023/05/26 05:46:33;;;;;;;6.10;3.50;;;;;;;-128.00;-1.00;-1.00;18865;294;7504506;-36
2023/05/26 05:48:59;;;;;;;6.30;2.30;;;;;;;-128.00;-1.00;-1.00;18536;293;7506197;-31
2023/05/26 05:51:25;;;;;;;15.70;3.70;;;;;;;-128.00;-1.00;-1.00;18861;293;7504517;-33
2023/05/26 05:53:52;;;;;;;6.30;3.10;;;;;;;-128.00;-1.00;-1.00;18891;294;7504550;-33
2023/05/26 05:56:18;;;;;;;4.80;2.50;;;;;;;-128.00;-1.00;-1.00;18501;293;7504781;-35
2023/05/26 05:58:44;;;;;;;6.30;2.70;;;;;;;-128.00;-1.00;-1.00;18503;294;7504433;-37
2023/05/26 06:01:09;;;;;;;10.10;2.70;;;;;;;-128.00;-1.00;-1.00;18520;293;7506253;-36
2023/05/26 06:03:36;;;;;;;6.20;2.90;;;;;;;-128.00;-1.00;-1.00;18927;293;7504407;-35
2023/05/26 06:06:02;;;;;;;8.90;3.50;;;;;;;-128.00;-1.00;-1.00;18915;293;7504905;-31
2023/05/26 06:08:28;;;;;;;6.10;2.70;;;;;;;-128.00;-1.00;-1.00;18917;293;7504277;-33
2023/05/26 06:10:54;;;;;;;9.50;3.30;;;;;;;-128.00;-1.00;-1.00;18938;293;7504381;-33
2023/05/26 06:13:20;;;;;;;3.60;2.50;;;;;;;-128.00;-1.00;-1.00;18935;293;7504177;-33
2023/05/26 06:15:47;;;;;;;13.80;2.80;;;;;;;-128.00;-1.00;-1.00;18896;293;7504314;-35
2023/05/26 06:18:13;;;;;;;6.50;3.10;;;;;;;-128.00;-1.00;-1.00;18913;293;7504975;-33
2023/05/26 06:20:39;;;;;;;10.70;2.10;;;;;;;-128.00;-1.00;-1.00;18893;293;7505768;-34
2023/05/26 06:23:05;;;;;;;2.90;1.50;;;;;;;-128.00;-1.00;-1.00;18508;293;7506199;-34
2023/05/26 06:25:31;;;;;;;4.30;1.90;;;;;;;-128.00;-1.00;-1.00;18512;293;7504966;-33
2023/05/26 06:27:56;;;;;;;4.00;2.10;;;;;;;-128.00;-1.00;-1.00;18521;293;7504184;-33
2023/05/26 06:30:23;;;;;;;7.20;2.80;;;;;;;-128.00;-1.00;-1.00;18882;293;7505004;-35
2023/05/26 06:32:48;;;;;;;3.30;1.90;;;;;;;-128.00;-1.00;-1.00;18504;293;7504917;-32
2023/05/26 06:35:15;;;;;;;6.70;2.60;;;;;;;-128.00;-1.00;-1.00;18922;293;7505007;-36
2023/05/26 06:37:41;;;;;;;11.70;3.10;;;;;;;-128.00;-1.00;-1.00;18910;293;7504533;-36
2023/05/26 06:40:07;;;;;;;11.30;3.10;;;;;;;-128.00;-1.00;-1.00;18909;294;7505054;-36
2023/05/26 06:42:33;;;;;;;4.40;2.70;;;;;;;-128.00;-1.00;-1.00;18523;293;7506463;-31
2023/05/26 06:44:59;;;;;;;4.00;2.30;;;;;;;-128.00;-1.00;-1.00;18480;294;7506149;-32
2023/05/26 06:47:25;;;;;;;6.50;2.10;;;;;;;-128.00;-1.00;-1.00;18500;293;7506013;-36
2023/05/26 06:49:51;;;;;;;6.30;2.20;;;;;;;-128.00;-1.00;-1.00;18507;293;7504593;-32
2023/05/26 06:52:17;;;;;;;8.80;2.00;;;;;;;-128.00;-1.00;-1.00;18495;293;7505242;-35
2023/05/26 06:54:43;;;;;;;13.20;2.90;;;;;;;-128.00;-1.00;-1.00;18543;293;7504803;-33
2023/05/26 06:57:08;;;;;;;8.20;2.80;;;;;;;-128.00;-1.00;-1.00;18495;345;7505034;-36
2023/05/26 06:59:34;;;;;;;5.40;2.10;;;;;;;-128.00;-1.00;-1.00;18501;293;7504516;-32
2023/05/26 07:02:00;;;;;;;7.30;3.10;;;;;;;-128.00;-1.00;-1.00;18874;293;7504403;-37
2023/05/26 07:04:27;;;;;;;12.50;2.70;;;;;;;-128.00;-1.00;-1.00;18891;293;7506446;-31
2023/05/26 07:06:53;;;;;;;5.40;2.00;;;;;;;-128.00;-1.00;-1.00;18926;293;7504714;-36
2023/05/26 07:09:19;;;;;;;12.10;2.50;;;;;;;-128.00;-1.00;-1.00;18917;294;7505296;-32
2023/05/26 07:11:45;;;;;;;3.80;1.90;;;;;;;-128.00;-1.00;-1.00;18487;293;7506163;-36
2023/05/26 07:14:11;;;;;;;6.30;2.10;;;;;;;-128.00;-1.00;-1.00;18917;293;7504943;-31
2023/05/26 07:16:37;;;;;;;7.20;2.30;;;;;;;-128.00;-1.00;-1.00;18882;281;7505196;-36
2023/05/26 07:19:04;;;;;;;11.40;2.60;;;;;;;-128.00;-1.00;-1.00;18883;293;7504633;-31
2023/05/26 07:21:31;;;;;;;7.60;2.70;;;;;;;-128.00;-1.00;-1.00;18863;294;7504519;-36
2023/05/26 07:23:57;;;;;;;6.90;3.10;;;;;;;-128.00;-1.00;-1.00;18523;293;7504187;-36
2023/05/26 07:26:22;;;;;;;8.10;2.60;;;;;;;-128.00;-1.00;-1.00;18468;293;7504282;-36
2023/05/26 07:28:51;;;;;;;21.70;2.70;;;;;;;-128.00;-1.00;-1.00;18516;293;7505871;-32
2023/05/26 07:31:18;;;;;;;3.40;1.30;;;;;;;-128.00;-1.00;-1.00;18522;294;7504743;-36
2023/05/26 07:33:44;;;;;;;9.20;2.80;;;;;;;-128.00;-1.00;-1.00;18519;293;7505056;-32
2023/05/26 07:36:10;;;;;;;12.80;2.60;;;;;;;-128.00;-1.00;-1.00;18518;293;7506091;-36
2023/05/26 07:38:36;;;;;;;15.30;2.60;;;;;;;-128.00;-1.00;-1.00;18499;301;7505079;-32
2023/05/26 07:41:01;;;;;;;6.70;2.20;;;;;;;-128.00;-1.00;-1.00;18494;293;7505993;-32
2023/05/26 07:43:27;;;;;;;7.40;2.70;;;;;;;-128.00;-1.00;-1.00;18491;293;7504654;-35
2023/05/26 07:45:53;;;;;;;6.00;1.90;;;;;;;-128.00;-1.00;-1.00;18928;293;7504502;-32
2023/05/26 07:48:19;;;;;;;8.30;3.00;;;;;;;-128.00;-1.00;-1.00;18872;347;7505400;-35
2023/05/26 07:50:46;;;;;;;3.70;1.60;;;;;;;-128.00;-1.00;-1.00;18891;293;8233537;-33
2023/05/26 07:53:13;;;;;;;6.10;2.00;;;;;;;-128.00;-1.00;-1.00;18895;346;7505172;-35
2023/05/26 07:55:39;;;;;;;4.60;2.60;;;;;;;-128.00;-1.00;-1.00;18890;293;7504084;-37
2023/05/26 07:58:06;;;;;;;10.20;3.10;;;;;;;-128.00;-1.00;-1.00;18897;294;7505113;-32
2023/05/26 08:00:32;;;;;;;9.20;2.80;;;;;;;-128.00;-1.00;-1.00;18508;293;7504473;-36
2023/05/26 08:02:57;;;;;;;4.80;2.40;;;;;;;-128.00;-1.00;-1.00;18535;293;7504287;-35
2023/05/26 08:05:26;;;;;;;4.00;2.40;;;;;;;-128.00;-1.00;-1.00;18944;293;7505156;-36
2023/05/26 08:07:52;;;;;;;5.70;2.40;;;;;;;-128.00;-1.00;-1.00;18499;293;7504835;-31
2023/05/26 08:10:17;;;;;;;7.80;1.30;;;;;;;-128.00;-1.00;-1.00;18485;293;7505049;-36
2023/05/26 08:12:44;;;;;;;1.50;1.20;;;;;;;-128.00;-1.00;-1.00;18495;293;7505475;-31
2023/05/26 08:15:14;;;;;;;7.10;2.40;;;;;;;-128.00;-1.00;-1.00;18453;293;7504490;-33
2023/05/26 08:17:41;;;;;;;13.60;2.30;;;;;;;-128.00;-1.00;-1.00;18528;293;7504646;-32
2023/05/26 08:20:07;;;;;;;7.10;2.60;;;;;;;-128.00;-1.00;-1.00;18487;293;7505999;-35
2023/05/26 08:22:32;;;;;;;4.10;2.60;;;;;;;-128.00;-1.00;-1.00;18474;298;7504412;-36
2023/05/26 08:25:01;;;;;;;10.80;2.90;;;;;;;-128.00;-1.00;-1.00;19141;345;7504404;-32
2023/05/26 08:27:27;;;;;;;11.90;3.30;;;;;;;-128.00;-1.00;-1.00;18886;294;7504182;-35
2023/05/26 08:29:54;;;;;;;15.00;3.30;;;;;;;-128.00;-1.00;-1.00;18871;345;7505106;-36
2023/05/26 08:32:19;;;;;;;8.40;2.70;;;;;;;-128.00;-1.00;-1.00;18475;293;7504468;-35
2023/05/26 08:34:46;;;;;;;9.30;2.80;;;;;;;-128.00;-1.00;-1.00;18906;293;7505133;-34
2023/05/26 08:37:13;;;;;;;4.70;2.70;;;;;;;-128.00;-1.00;-1.00;18907;293;7505133;-35
2023/05/26 08:39:39;;;;;;;8.40;3.30;;;;;;;-128.00;-1.00;-1.00;18472;294;7505068;-32
2023/05/26 08:42:06;;;;;;;3.00;2.60;;;;;;;-128.00;-1.00;-1.00;18495;293;7506202;-35
2023/05/26 08:44:36;;;;;;;7.90;3.10;;;;;;;-128.00;-1.00;-1.00;18524;293;7505796;-31
2023/05/26 08:47:05;;;;;;;16.80;2.20;;;;;;;-128.00;-1.00;-1.00;18502;294;7504366;-35
2023/05/26 08:49:34;;;;;;;10.00;2.60;;;;;;;-128.00;-1.00;-1.00;18512;293;7504781;-31
2023/05/26 08:52:02;;;;;;;4.80;1.80;;;;;;;-128.00;-1.00;-1.00;18481;293;7504683;-31
2023/05/26 08:54:28;;;;;;;2.70;1.80;;;;;;;-128.00;-1.00;-1.00;18529;294;7504497;-36
2023/05/26 08:56:56;;;;;;;6.90;1.80;;;;;;;-128.00;-1.00;-1.00;18534;293;7504853;-32
2023/05/26 08:59:23;;;;;;;3.70;2.20;;;;;;;-128.00;-1.00;-1.00;18494;293;7504596;-36
2023/05/26 09:01:49;;;;;;;5.80;2.80;;;;;;;-128.00;-1.00;-1.00;18892;293;7504572;-36
2023/05/26 09:04:15;;;;;;;10.70;3.70;;;;;;;-128.00;-1.00;-1.00;18914;293;7504573;-36
2023/05/26 09:06:42;;;;;;;10.20;2.80;;;;;;;-128.00;-1.00;-1.00;18903;293;7504609;-32
2023/05/26 09:09:08;;;;;;;5.50;3.10;;;;;;;-128.00;-1.00;-1.00;18480;286;7505546;-36
2023/05/26 09:11:34;;;;;;;9.50;2.30;;;;;;;-128.00;-1.00;-1.00;18506;294;7505945;-32
2023/05/26 09:14:02;;;;;;;3.80;2.10;;;;;;;-128.00;-1.00;-1.00;18530;294;7504015;-35
2023/05/26 09:16:28;;;;;;;5.60;2.90;;;;;;;-128.00;-1.00;-1.00;18501;293;7506707;-31
2023/05/26 09:18:57;;;;;;;7.80;3.20;;;;;;;-128.00;-1.00;-1.00;18514;293;7505032;-34
2023/05/26 09:21:24;;;;;;;10.50;2.30;;;;;;;-128.00;-1.00;-1.00;18496;293;7504374;-31
2023/05/26 09:23:55;;;;;;;21.80;3.20;;;;;;;-128.00;-1.00;-1.00;18497;293;7504313;-35
2023/05/26 09:26:33;;;;;;;7.10;1.50;;;;;;;-128.00;-1.00;-1.00;18518;294;7504483;-36
2023/05/26 09:28:59;;;;;;;9.50;2.70;;;;;;;-128.00;-1.00;-1.00;18535;294;7504178;-32
2023/05/26 09:31:25;;;;;;;8.70;2.90;;;;;;;-128.00;-1.00;-1.00;18481;294;7505160;-35
2023/05/26 09:33:52;;;;;;;7.00;3.00;;;;;;;-128.00;-1.00;-1.00;18504;293;7504720;-32
2023/05/26 09:36:21;;;;;;;7.40;2.20;;;;;;;-128.00;-1.00;-1.00;18507;286;7505884;-35
2023/05/26 09:38:47;;;;;;;5.80;2.10;;;;;;;-128.00;-1.00;-1.00;18525;293;7505971;-31
2023/05/26 09:41:13;;;;;;;8.00;1.70;;;;;;;-128.00;-1.00;-1.00;18473;294;7504552;-36
2023/05/26 09:43:39;;;;;;;3.10;1.00;;;;;;;-128.00;-1.00;-1.00;18515;294;7505874;-35
2023/05/26 09:46:19;;;;;;;4.30;1.70;;;;;;;-128.00;-1.00;-1.00;18522;293;7506141;-31
2023/05/26 09:48:49;;;;;;;6.20;1.90;;;;;;;-128.00;-1.00;-1.00;18469;293;7505302;-35
2023/05/26 09:51:18;;;;;;;3.30;2.00;;;;;;;-128.00;-1.00;-1.00;18506;294;7505747;-36
2023/05/26 09:53:43;;;;;;;5.60;1.90;;;;;;;-128.00;-1.00;-1.00;18487;293;7506490;-37
2023/05/26 09:56:09;;;;;;;7.80;2.20;;;;;;;-128.00;-1.00;-1.00;18517;293;7504794;-37
2023/05/26 09:58:38;;;;;;;8.60;2.30;;;;;;;-128.00;-1.00;-1.00;18884;294;7505214;-33
2023/05/26 10:01:05;;;;;;;15.00;3.00;;;;;;;-128.00;-1.00;-1.00;18513;293;7504872;-33
2023/05/26 10:03:30;;;;;;;5.10;2.20;;;;;;;-128.00;-1.00;-1.00;18503;294;7506538;-36
2023/05/26 10:05:57;;;;;;;4.80;2.90;;;;;;;-128.00;-1.00;-1.00;18501;293;7506518;-33
2023/05/26 10:08:23;;;;;;;17.80;2.60;;;;;;;-128.00;-1.00;-1.00;18484;294;7504647;-32
2023/05/26 10:10:49;;;;;;;9.70;2.10;;;;;;;-128.00;-1.00;-1.00;18504;293;7506404;-32
2023/05/26 10:13:18;;;;;;;4.40;2.00;;;;;;;-128.00;-1.00;-1.00;18499;294;7504679;-32
2023/05/26 10:15:45;;;;;;;5.10;2.20;;;;;;;-128.00;-1.00;-1.00;18499;293;7504386;-36
2023/05/26 10:18:11;;;;;;;4.70;1.80;;;;;;;-128.00;-1.00;-1.00;18494;293;7504780;-32
2023/05/26 10:20:36;;;;;;;10.30;3.10;;;;;;;-128.00;-1.00;-1.00;18494;294;7504712;-32
2023/05/26 10:23:07;;;;;;;10.10;2.10;;;;;;;-128.00;-1.00;-1.00;18491;338;7504989;-36
2023/05/26 10:25:39;;;;;;;4.00;1.60;;;;;;;-128.00;-1.00;-1.00;18488;294;7504518;-35
2023/05/26 10:28:19;;;;;;;6.70;2.20;;;;;;;-128.00;-1.00;-1.00;18504;293;7506796;-37
2023/05/26 10:30:45;;;;;;;8.50;1.50;;;;;;;-128.00;-1.00;-1.00;18499;293;7504533;-35
2023/05/26 10:33:12;;;;;;;7.70;2.00;;;;;;;-128.00;-1.00;-1.00;18499;293;7505207;-31
2023/05/26 10:35:38;;;;;;;4.80;2.00;;;;;;;-128.00;-1.00;-1.00;18525;293;7504835;-31
2023/05/26 10:38:12;;;;;;;7.40;2.10;;;;;;;-128.00;-1.00;-1.00;18505;293;7504765;-35
2023/05/26 10:40:49;;;;;;;1.10;0.50;;;;;;;-128.00;-1.00;-1.00;18500;293;7505162;-31
2023/05/26 10:43:27;;;;;;;7.40;2.70;;;;;;;-128.00;-1.00;-1.00;18488;293;7505095;-35
2023/05/26 10:46:05;;;;;;;4.90;1.50;;;;;;;-128.00;-1.00;-1.00;18507;293;7506042;-35
2023/05/26 10:48:38;;;;;;;8.80;2.40;;;;;;;-128.00;-1.00;-1.00;18484;293;7504170;-31
2023/05/26 10:51:05;;;;;;;10.60;0.80;;;;;;;-128.00;-1.00;-1.00;18483;305;7504445;-35
2023/05/26 10:53:46;;;;;;;6.40;2.10;;;;;;;-128.00;-1.00;-1.00;18493;293;7504454;-35
2023/05/26 10:56:13;;;;;;;2.20;1.20;;;;;;;-128.00;-1.00;-1.00;18463;296;7504629;-33
2023/05/26 10:58:51;;;;;;;3.60;1.50;;;;;;;-128.00;-1.00;-1.00;18503;293;7504164;-31
2023/05/26 11:01:30;;;;;;;4.70;1.60;;;;;;;-128.00;-1.00;-1.00;18506;305;7505179;-31
2023/05/26 11:04:09;;;;;;;7.20;1.20;;;;;;;-128.00;-1.00;-1.00;18488;293;7505902;-35
2023/05/26 11:47:15;;;;;;;8.40;1.60;;;;;;;-98.07;5.44;20023.44;98219;294;1542792;-33
2023/05/26 11:49:47;;;;;;;3.90;1.40;;;;;;;-128.00;-1.00;-1.00;97562;295;1003110;-35
2023/05/26 11:52:13;;;;;;;4.30;1.30;;;;;;;-128.00;-1.00;-1.00;97816;293;1004992;-31
2023/05/26 11:54:38;;;;;;;2.80;1.70;;;;;;;-128.00;-1.00;-1.00;97855;293;1003816;-32
2023/05/26 11:57:04;;;;;;;2.00;1.10;;;;;;;-128.00;-1.00;-1.00;97798;293;1005401;-31
2023/05/26 11:59:30;;;;;;;2.50;0.80;;;;;;;-128.00;-1.00;-1.00;97769;293;1007590;-35
2023/05/26 12:01:58;;;;;;;7.40;1.10;;;;;;;-128.00;-1.00;-1.00;97742;295;1004780;-31
2023/05/26 12:04:26;;;;;;;6.40;1.60;;;;;;;-128.00;-1.00;-1.00;97798;293;1005681;-35
2023/05/26 12:06:52;;;;;;;3.00;0.70;;;;;;;-128.00;-1.00;-1.00;97914;281;1005568;-35
2023/05/26 12:09:20;;;;;;;5.30;0.90;;;;;;;-128.00;-1.00;-1.00;97756;293;1005211;-32